sensor_id;sensor_type;location;lat;lon;timestamp;P1;durP1;ratioP1;P2;durP2;ratioP2
25569;SDS011;17955;45.542;9.238;2022-10-18T00:00:47;65.85;;;36.33;;
25569;SDS011;17955;45.542;9.238;2022-10-18T00:03:14;68.05;;;37.00;;
25569;SDS011;17955;45.542;9.238;2022-10-18T00:05:42;64.55;;;37.13;;
25569;SDS011;17955;45.542;9.238;2022-10-18T00:08:09;72.70;;;36.72;;
25569;SDS011;17955;45.542;9.238;2022-10-18T00:10:36;59.90;;;34.20;;
25569;SDS011;17955;45.542;9.238;2022-10-18T00:13:04;60.03;;;32.35;;
25569;SDS011;17955;45.542;9.238;2022-10-18T00:15:31;66.18;;;35.88;;
25569;SDS011;17955;45.542;9.238;2022-10-18T00:18:00;59.10;;;34.28;;
25569;SDS011;17955;45.542;9.238;2022-10-18T00:20:27;59.63;;;35.28;;
25569;SDS011;17955;45.542;9.238;2022-10-18T00:22:54;63.53;;;34.83;;
25569;SDS011;17955;45.542;9.238;2022-10-18T00:25:22;62.65;;;34.20;;
25569;SDS011;17955;45.542;9.238;2022-10-18T00:27:49;59.38;;;33.55;;
25569;SDS011;17955;45.542;9.238;2022-10-18T00:30:16;61.33;;;33.65;;
25569;SDS011;17955;45.542;9.238;2022-10-18T00:32:43;62.05;;;35.80;;
25569;SDS011;17955;45.542;9.238;2022-10-18T00:35:12;59.85;;;33.70;;
25569;SDS011;17955;45.542;9.238;2022-10-18T00:37:39;60.58;;;34.03;;
25569;SDS011;17955;45.542;9.238;2022-10-18T00:40:07;60.45;;;35.85;;
25569;SDS011;17955;45.542;9.238;2022-10-18T00:42:35;57.42;;;34.08;;
25569;SDS011;17955;45.542;9.238;2022-10-18T00:45:06;57.15;;;34.17;;
25569;SDS011;17955;45.542;9.238;2022-10-18T00:47:41;56.15;;;32.00;;
25569;SDS011;17955;45.542;9.238;2022-10-18T00:50:13;66.40;;;34.53;;
25569;SDS011;17955;45.542;9.238;2022-10-18T00:52:41;66.88;;;34.17;;
25569;SDS011;17955;45.542;9.238;2022-10-18T00:55:09;54.58;;;32.45;;
25569;SDS011;17955;45.542;9.238;2022-10-18T00:57:36;60.85;;;33.38;;
25569;SDS011;17955;45.542;9.238;2022-10-18T01:00:04;60.63;;;32.15;;
25569;SDS011;17955;45.542;9.238;2022-10-18T01:02:34;61.85;;;33.55;;
25569;SDS011;17955;45.542;9.238;2022-10-18T01:05:02;57.63;;;33.70;;
25569;SDS011;17955;45.542;9.238;2022-10-18T01:07:36;58.67;;;34.05;;
25569;SDS011;17955;45.542;9.238;2022-10-18T01:10:16;63.10;;;33.83;;
25569;SDS011;17955;45.542;9.238;2022-10-18T01:12:55;64.93;;;34.45;;
25569;SDS011;17955;45.542;9.238;2022-10-18T01:15:35;60.38;;;36.80;;
25569;SDS011;17955;45.542;9.238;2022-10-18T01:18:07;57.67;;;33.50;;
25569;SDS011;17955;45.542;9.238;2022-10-18T01:26:38;60.83;;;32.95;;
25569;SDS011;17955;45.542;9.238;2022-10-18T01:29:21;57.65;;;32.05;;
25569;SDS011;17955;45.542;9.238;2022-10-18T01:31:59;61.45;;;32.47;;
25569;SDS011;17955;45.542;9.238;2022-10-18T01:34:30;61.53;;;33.22;;
25569;SDS011;17955;45.542;9.238;2022-10-18T01:37:00;57.75;;;31.80;;
25569;SDS011;17955;45.542;9.238;2022-10-18T01:39:31;56.65;;;32.08;;
25569;SDS011;17955;45.542;9.238;2022-10-18T01:42:04;56.50;;;32.25;;
25569;SDS011;17955;45.542;9.238;2022-10-18T01:44:35;62.00;;;32.75;;
25569;SDS011;17955;45.542;9.238;2022-10-18T01:47:06;58.70;;;32.55;;
25569;SDS011;17955;45.542;9.238;2022-10-18T01:49:36;58.60;;;31.30;;
25569;SDS011;17955;45.542;9.238;2022-10-18T01:52:03;56.97;;;31.67;;
25569;SDS011;17955;45.542;9.238;2022-10-18T01:54:31;59.08;;;32.15;;
25569;SDS011;17955;45.542;9.238;2022-10-18T01:57:00;51.55;;;32.47;;
25569;SDS011;17955;45.542;9.238;2022-10-18T01:59:33;57.38;;;32.35;;
25569;SDS011;17955;45.542;9.238;2022-10-18T02:02:16;56.03;;;32.55;;
25569;SDS011;17955;45.542;9.238;2022-10-18T02:04:53;55.33;;;31.73;;
25569;SDS011;17955;45.542;9.238;2022-10-18T02:07:33;59.22;;;31.63;;
25569;SDS011;17955;45.542;9.238;2022-10-18T02:10:06;54.25;;;31.83;;
25569;SDS011;17955;45.542;9.238;2022-10-18T02:12:36;56.75;;;31.58;;
25569;SDS011;17955;45.542;9.238;2022-10-18T02:15:05;56.28;;;33.08;;
25569;SDS011;17955;45.542;9.238;2022-10-18T02:17:35;54.40;;;32.75;;
25569;SDS011;17955;45.542;9.238;2022-10-18T02:20:05;63.13;;;32.63;;
25569;SDS011;17955;45.542;9.238;2022-10-18T02:22:34;53.45;;;32.20;;
25569;SDS011;17955;45.542;9.238;2022-10-18T02:25:04;50.85;;;30.40;;
25569;SDS011;17955;45.542;9.238;2022-10-18T02:27:34;51.45;;;30.15;;
25569;SDS011;17955;45.542;9.238;2022-10-18T02:30:02;54.28;;;32.03;;
25569;SDS011;17955;45.542;9.238;2022-10-18T02:32:32;55.00;;;32.03;;
25569;SDS011;17955;45.542;9.238;2022-10-18T02:35:05;57.95;;;32.10;;
25569;SDS011;17955;45.542;9.238;2022-10-18T02:37:36;56.25;;;31.23;;
25569;SDS011;17955;45.542;9.238;2022-10-18T02:40:05;57.33;;;31.90;;
25569;SDS011;17955;45.542;9.238;2022-10-18T02:42:34;53.42;;;29.83;;
25569;SDS011;17955;45.542;9.238;2022-10-18T02:45:02;54.40;;;31.55;;
25569;SDS011;17955;45.542;9.238;2022-10-18T02:47:29;52.25;;;31.38;;
25569;SDS011;17955;45.542;9.238;2022-10-18T02:49:56;52.50;;;30.23;;
25569;SDS011;17955;45.542;9.238;2022-10-18T02:52:25;54.03;;;31.65;;
25569;SDS011;17955;45.542;9.238;2022-10-18T02:54:52;56.33;;;31.45;;
25569;SDS011;17955;45.542;9.238;2022-10-18T02:57:19;58.95;;;31.77;;
25569;SDS011;17955;45.542;9.238;2022-10-18T02:59:46;60.50;;;32.17;;
25569;SDS011;17955;45.542;9.238;2022-10-18T03:02:13;52.45;;;30.95;;
25569;SDS011;17955;45.542;9.238;2022-10-18T03:04:40;56.83;;;30.85;;
25569;SDS011;17955;45.542;9.238;2022-10-18T03:07:07;63.47;;;33.47;;
25569;SDS011;17955;45.542;9.238;2022-10-18T03:09:35;55.88;;;31.65;;
25569;SDS011;17955;45.542;9.238;2022-10-18T03:12:02;59.65;;;31.55;;
25569;SDS011;17955;45.542;9.238;2022-10-18T03:14:30;54.17;;;30.67;;
25569;SDS011;17955;45.542;9.238;2022-10-18T03:16:57;52.22;;;29.90;;
25569;SDS011;17955;45.542;9.238;2022-10-18T03:19:24;52.60;;;30.42;;
25569;SDS011;17955;45.542;9.238;2022-10-18T03:21:51;54.10;;;30.63;;
25569;SDS011;17955;45.542;9.238;2022-10-18T03:24:18;54.42;;;31.13;;
25569;SDS011;17955;45.542;9.238;2022-10-18T03:26:47;51.38;;;31.85;;
25569;SDS011;17955;45.542;9.238;2022-10-18T03:29:14;59.70;;;31.13;;
25569;SDS011;17955;45.542;9.238;2022-10-18T03:31:41;56.33;;;31.05;;
25569;SDS011;17955;45.542;9.238;2022-10-18T03:34:08;55.17;;;31.23;;
25569;SDS011;17955;45.542;9.238;2022-10-18T03:36:36;51.95;;;30.85;;
25569;SDS011;17955;45.542;9.238;2022-10-18T03:39:05;49.75;;;29.83;;
25569;SDS011;17955;45.542;9.238;2022-10-18T03:41:32;50.33;;;30.33;;
25569;SDS011;17955;45.542;9.238;2022-10-18T03:44:00;56.55;;;31.35;;
25569;SDS011;17955;45.542;9.238;2022-10-18T03:46:28;58.95;;;29.98;;
25569;SDS011;17955;45.542;9.238;2022-10-18T03:48:55;50.83;;;30.45;;
25569;SDS011;17955;45.542;9.238;2022-10-18T03:51:22;54.65;;;30.65;;
25569;SDS011;17955;45.542;9.238;2022-10-18T03:53:49;51.75;;;30.42;;
25569;SDS011;17955;45.542;9.238;2022-10-18T03:56:16;53.05;;;29.83;;
25569;SDS011;17955;45.542;9.238;2022-10-18T03:58:43;50.13;;;30.48;;
25569;SDS011;17955;45.542;9.238;2022-10-18T04:01:12;50.08;;;29.05;;
25569;SDS011;17955;45.542;9.238;2022-10-18T04:03:39;51.38;;;29.83;;
25569;SDS011;17955;45.542;9.238;2022-10-18T04:06:06;52.40;;;30.27;;
25569;SDS011;17955;45.542;9.238;2022-10-18T04:08:34;47.88;;;30.30;;
25569;SDS011;17955;45.542;9.238;2022-10-18T04:11:03;51.42;;;28.70;;
25569;SDS011;17955;45.542;9.238;2022-10-18T04:13:32;55.58;;;30.17;;
25569;SDS011;17955;45.542;9.238;2022-10-18T04:16:00;48.85;;;28.35;;
25569;SDS011;17955;45.542;9.238;2022-10-18T04:18:28;49.75;;;28.92;;
25569;SDS011;17955;45.542;9.238;2022-10-18T04:20:55;46.70;;;27.67;;
25569;SDS011;17955;45.542;9.238;2022-10-18T04:23:22;52.58;;;26.95;;
25569;SDS011;17955;45.542;9.238;2022-10-18T04:25:50;48.45;;;28.40;;
25569;SDS011;17955;45.542;9.238;2022-10-18T04:28:17;48.35;;;27.95;;
25569;SDS011;17955;45.542;9.238;2022-10-18T04:30:47;51.72;;;27.65;;
25569;SDS011;17955;45.542;9.238;2022-10-18T04:33:15;47.08;;;28.17;;
25569;SDS011;17955;45.542;9.238;2022-10-18T04:35:44;46.15;;;27.75;;
25569;SDS011;17955;45.542;9.238;2022-10-18T04:38:11;47.65;;;27.15;;
25569;SDS011;17955;45.542;9.238;2022-10-18T04:40:40;53.00;;;30.05;;
25569;SDS011;17955;45.542;9.238;2022-10-18T04:43:07;51.97;;;28.70;;
25569;SDS011;17955;45.542;9.238;2022-10-18T04:45:34;52.13;;;29.88;;
25569;SDS011;17955;45.542;9.238;2022-10-18T04:48:01;53.80;;;29.10;;
25569;SDS011;17955;45.542;9.238;2022-10-18T04:50:29;47.83;;;29.65;;
25569;SDS011;17955;45.542;9.238;2022-10-18T04:52:57;55.22;;;31.92;;
25569;SDS011;17955;45.542;9.238;2022-10-18T04:55:24;52.30;;;30.50;;
25569;SDS011;17955;45.542;9.238;2022-10-18T04:57:53;57.63;;;30.38;;
25569;SDS011;17955;45.542;9.238;2022-10-18T05:00:20;57.20;;;30.65;;
25569;SDS011;17955;45.542;9.238;2022-10-18T05:02:48;70.43;;;36.45;;
25569;SDS011;17955;45.542;9.238;2022-10-18T05:05:15;51.92;;;29.65;;
25569;SDS011;17955;45.542;9.238;2022-10-18T05:07:42;51.95;;;28.67;;
25569;SDS011;17955;45.542;9.238;2022-10-18T05:10:11;54.40;;;29.60;;
25569;SDS011;17955;45.542;9.238;2022-10-18T05:12:38;49.33;;;28.98;;
25569;SDS011;17955;45.542;9.238;2022-10-18T05:15:05;57.13;;;29.85;;
25569;SDS011;17955;45.542;9.238;2022-10-18T05:17:33;54.08;;;28.85;;
25569;SDS011;17955;45.542;9.238;2022-10-18T05:20:00;52.13;;;30.35;;
25569;SDS011;17955;45.542;9.238;2022-10-18T05:22:27;52.85;;;28.20;;
25569;SDS011;17955;45.542;9.238;2022-10-18T05:24:54;47.28;;;26.98;;
25569;SDS011;17955;45.542;9.238;2022-10-18T05:27:23;46.88;;;26.52;;
25569;SDS011;17955;45.542;9.238;2022-10-18T05:29:50;46.05;;;26.58;;
25569;SDS011;17955;45.542;9.238;2022-10-18T05:32:17;45.75;;;27.27;;
25569;SDS011;17955;45.542;9.238;2022-10-18T05:34:45;43.95;;;26.75;;
25569;SDS011;17955;45.542;9.238;2022-10-18T05:37:12;48.28;;;26.40;;
25569;SDS011;17955;45.542;9.238;2022-10-18T05:39:39;47.22;;;27.38;;
25569;SDS011;17955;45.542;9.238;2022-10-18T05:42:06;50.00;;;28.30;;
25569;SDS011;17955;45.542;9.238;2022-10-18T05:44:35;43.97;;;27.35;;
25569;SDS011;17955;45.542;9.238;2022-10-18T05:47:02;42.70;;;26.02;;
25569;SDS011;17955;45.542;9.238;2022-10-18T05:49:29;42.58;;;26.67;;
25569;SDS011;17955;45.542;9.238;2022-10-18T05:51:56;50.97;;;27.45;;
25569;SDS011;17955;45.542;9.238;2022-10-18T05:54:23;43.28;;;26.60;;
25569;SDS011;17955;45.542;9.238;2022-10-18T05:56:50;39.70;;;24.13;;
25569;SDS011;17955;45.542;9.238;2022-10-18T05:59:18;41.40;;;25.70;;
25569;SDS011;17955;45.542;9.238;2022-10-18T06:01:47;39.30;;;24.42;;
25569;SDS011;17955;45.542;9.238;2022-10-18T06:04:14;36.47;;;23.58;;
25569;SDS011;17955;45.542;9.238;2022-10-18T06:06:42;40.42;;;23.20;;
25569;SDS011;17955;45.542;9.238;2022-10-18T06:09:09;40.63;;;24.90;;
25569;SDS011;17955;45.542;9.238;2022-10-18T06:11:36;41.45;;;24.25;;
25569;SDS011;17955;45.542;9.238;2022-10-18T06:14:03;47.83;;;26.92;;
25569;SDS011;17955;45.542;9.238;2022-10-18T06:16:31;46.17;;;25.88;;
25569;SDS011;17955;45.542;9.238;2022-10-18T06:18:59;44.10;;;24.40;;
25569;SDS011;17955;45.542;9.238;2022-10-18T06:21:26;43.05;;;24.83;;
25569;SDS011;17955;45.542;9.238;2022-10-18T06:23:54;43.03;;;25.13;;
25569;SDS011;17955;45.542;9.238;2022-10-18T06:26:21;42.90;;;24.00;;
25569;SDS011;17955;45.542;9.238;2022-10-18T06:28:48;42.92;;;24.13;;
25569;SDS011;17955;45.542;9.238;2022-10-18T06:31:16;39.03;;;23.23;;
25569;SDS011;17955;45.542;9.238;2022-10-18T06:33:44;44.72;;;25.25;;
25569;SDS011;17955;45.542;9.238;2022-10-18T06:36:13;41.70;;;25.23;;
25569;SDS011;17955;45.542;9.238;2022-10-18T06:38:41;46.83;;;23.05;;
25569;SDS011;17955;45.542;9.238;2022-10-18T06:41:08;38.25;;;21.90;;
25569;SDS011;17955;45.542;9.238;2022-10-18T06:43:35;56.45;;;22.73;;
25569;SDS011;17955;45.542;9.238;2022-10-18T06:46:03;39.10;;;22.60;;
25569;SDS011;17955;45.542;9.238;2022-10-18T06:48:34;40.63;;;22.60;;
25569;SDS011;17955;45.542;9.238;2022-10-18T06:51:02;41.60;;;22.25;;
25569;SDS011;17955;45.542;9.238;2022-10-18T06:53:33;51.03;;;22.40;;
25569;SDS011;17955;45.542;9.238;2022-10-18T06:56:01;39.10;;;22.17;;
25569;SDS011;17955;45.542;9.238;2022-10-18T06:58:29;41.90;;;22.75;;
25569;SDS011;17955;45.542;9.238;2022-10-18T07:01:03;45.10;;;22.90;;
25569;SDS011;17955;45.542;9.238;2022-10-18T07:03:31;46.15;;;22.10;;
25569;SDS011;17955;45.542;9.238;2022-10-18T07:05:59;36.65;;;21.58;;
25569;SDS011;17955;45.542;9.238;2022-10-18T07:08:26;36.67;;;21.35;;
25569;SDS011;17955;45.542;9.238;2022-10-18T07:10:55;39.95;;;23.10;;
25569;SDS011;17955;45.542;9.238;2022-10-18T07:13:22;44.25;;;22.27;;
25569;SDS011;17955;45.542;9.238;2022-10-18T07:15:58;38.50;;;22.17;;
25569;SDS011;17955;45.542;9.238;2022-10-18T07:18:26;37.13;;;21.77;;
25569;SDS011;17955;45.542;9.238;2022-10-18T07:20:53;37.10;;;21.85;;
25569;SDS011;17955;45.542;9.238;2022-10-18T07:23:21;42.00;;;22.65;;
25569;SDS011;17955;45.542;9.238;2022-10-18T07:25:48;34.58;;;22.25;;
25569;SDS011;17955;45.542;9.238;2022-10-18T07:28:16;42.45;;;23.23;;
25569;SDS011;17955;45.542;9.238;2022-10-18T07:30:44;37.92;;;22.70;;
25569;SDS011;17955;45.542;9.238;2022-10-18T07:33:11;45.05;;;22.05;;
25569;SDS011;17955;45.542;9.238;2022-10-18T07:35:38;43.90;;;23.00;;
25569;SDS011;17955;45.542;9.238;2022-10-18T07:38:05;35.47;;;21.35;;
25569;SDS011;17955;45.542;9.238;2022-10-18T07:40:32;45.42;;;23.60;;
25569;SDS011;17955;45.542;9.238;2022-10-18T07:42:59;42.50;;;23.17;;
25569;SDS011;17955;45.542;9.238;2022-10-18T07:45:28;44.65;;;21.88;;
25569;SDS011;17955;45.542;9.238;2022-10-18T07:47:55;39.30;;;23.45;;
25569;SDS011;17955;45.542;9.238;2022-10-18T07:50:23;41.42;;;23.85;;
25569;SDS011;17955;45.542;9.238;2022-10-18T07:52:50;39.45;;;23.90;;
25569;SDS011;17955;45.542;9.238;2022-10-18T07:55:17;43.80;;;22.58;;
25569;SDS011;17955;45.542;9.238;2022-10-18T07:57:44;44.42;;;23.95;;
25569;SDS011;17955;45.542;9.238;2022-10-18T08:00:12;43.00;;;25.17;;
25569;SDS011;17955;45.542;9.238;2022-10-18T08:02:41;41.90;;;25.30;;
25569;SDS011;17955;45.542;9.238;2022-10-18T08:05:08;49.10;;;25.77;;
25569;SDS011;17955;45.542;9.238;2022-10-18T08:07:35;45.15;;;25.55;;
25569;SDS011;17955;45.542;9.238;2022-10-18T08:10:03;45.85;;;26.45;;
25569;SDS011;17955;45.542;9.238;2022-10-18T08:12:30;49.85;;;26.45;;
25569;SDS011;17955;45.542;9.238;2022-10-18T08:14:57;49.63;;;26.95;;
25569;SDS011;17955;45.542;9.238;2022-10-18T08:17:24;44.67;;;24.83;;
25569;SDS011;17955;45.542;9.238;2022-10-18T08:19:53;51.10;;;25.95;;
25569;SDS011;17955;45.542;9.238;2022-10-18T08:22:20;41.58;;;24.02;;
25569;SDS011;17955;45.542;9.238;2022-10-18T08:24:47;49.47;;;26.98;;
25569;SDS011;17955;45.542;9.238;2022-10-18T08:27:14;50.40;;;25.95;;
25569;SDS011;17955;45.542;9.238;2022-10-18T08:29:41;45.25;;;27.85;;
25569;SDS011;17955;45.542;9.238;2022-10-18T08:32:08;45.53;;;25.85;;
25569;SDS011;17955;45.542;9.238;2022-10-18T08:34:35;47.97;;;28.10;;
25569;SDS011;17955;45.542;9.238;2022-10-18T08:37:04;53.47;;;25.27;;
25569;SDS011;17955;45.542;9.238;2022-10-18T08:39:31;45.78;;;25.98;;
25569;SDS011;17955;45.542;9.238;2022-10-18T08:42:10;50.15;;;25.98;;
25569;SDS011;17955;45.542;9.238;2022-10-18T08:44:58;40.30;;;23.30;;
25569;SDS011;17955;45.542;9.238;2022-10-18T08:47:28;42.40;;;23.05;;
25569;SDS011;17955;45.542;9.238;2022-10-18T08:50:00;35.45;;;21.42;;
25569;SDS011;17955;45.542;9.238;2022-10-18T08:52:32;37.20;;;21.38;;
25569;SDS011;17955;45.542;9.238;2022-10-18T08:55:01;33.90;;;21.88;;
25569;SDS011;17955;45.542;9.238;2022-10-18T08:57:32;34.05;;;22.05;;
25569;SDS011;17955;45.542;9.238;2022-10-18T09:00:00;30.38;;;20.85;;
25569;SDS011;17955;45.542;9.238;2022-10-18T09:02:31;33.10;;;19.85;;
25569;SDS011;17955;45.542;9.238;2022-10-18T09:05:07;33.58;;;19.25;;
25569;SDS011;17955;45.542;9.238;2022-10-18T09:07:55;31.20;;;20.35;;
25569;SDS011;17955;45.542;9.238;2022-10-18T09:10:49;37.10;;;20.45;;
25569;SDS011;17955;45.542;9.238;2022-10-18T09:16:26;32.08;;;18.00;;
25569;SDS011;17955;45.542;9.238;2022-10-18T09:18:59;38.42;;;20.05;;
25569;SDS011;17955;45.542;9.238;2022-10-18T09:21:35;39.67;;;19.40;;
25569;SDS011;17955;45.542;9.238;2022-10-18T09:24:13;40.53;;;19.63;;
25569;SDS011;17955;45.542;9.238;2022-10-18T09:26:47;32.97;;;17.73;;
25569;SDS011;17955;45.542;9.238;2022-10-18T09:29:25;36.65;;;18.80;;
25569;SDS011;17955;45.542;9.238;2022-10-18T09:32:03;30.50;;;17.98;;
25569;SDS011;17955;45.542;9.238;2022-10-18T09:34:40;34.65;;;17.77;;
25569;SDS011;17955;45.542;9.238;2022-10-18T09:37:15;30.27;;;17.23;;
25569;SDS011;17955;45.542;9.238;2022-10-18T09:39:45;30.50;;;17.88;;
25569;SDS011;17955;45.542;9.238;2022-10-18T09:42:16;28.92;;;16.65;;
25569;SDS011;17955;45.542;9.238;2022-10-18T09:44:52;34.20;;;17.45;;
25569;SDS011;17955;45.542;9.238;2022-10-18T09:47:22;27.17;;;16.20;;
25569;SDS011;17955;45.542;9.238;2022-10-18T09:49:53;30.40;;;17.35;;
25569;SDS011;17955;45.542;9.238;2022-10-18T09:52:24;26.00;;;16.40;;
25569;SDS011;17955;45.542;9.238;2022-10-18T09:54:58;30.83;;;17.42;;
25569;SDS011;17955;45.542;9.238;2022-10-18T09:57:32;30.08;;;17.33;;
25569;SDS011;17955;45.542;9.238;2022-10-18T10:00:03;29.50;;;17.77;;
25569;SDS011;17955;45.542;9.238;2022-10-18T10:05:14;27.65;;;16.92;;
25569;SDS011;17955;45.542;9.238;2022-10-18T10:07:41;29.48;;;16.67;;
25569;SDS011;17955;45.542;9.238;2022-10-18T10:10:13;28.42;;;16.73;;
25569;SDS011;17955;45.542;9.238;2022-10-18T10:12:44;27.27;;;16.40;;
25569;SDS011;17955;45.542;9.238;2022-10-18T10:15:16;27.63;;;14.15;;
25569;SDS011;17955;45.542;9.238;2022-10-18T10:17:52;27.92;;;16.30;;
25569;SDS011;17955;45.542;9.238;2022-10-18T10:20:22;24.70;;;15.45;;
25569;SDS011;17955;45.542;9.238;2022-10-18T10:22:51;28.45;;;17.00;;
25569;SDS011;17955;45.542;9.238;2022-10-18T10:25:21;49.28;;;20.73;;
25569;SDS011;17955;45.542;9.238;2022-10-18T10:27:55;37.13;;;18.42;;
25569;SDS011;17955;45.542;9.238;2022-10-18T10:30:29;31.50;;;16.73;;
25569;SDS011;17955;45.542;9.238;2022-10-18T10:32:58;26.25;;;16.60;;
25569;SDS011;17955;45.542;9.238;2022-10-18T10:35:29;32.17;;;16.27;;
25569;SDS011;17955;45.542;9.238;2022-10-18T10:37:58;30.25;;;17.08;;
25569;SDS011;17955;45.542;9.238;2022-10-18T10:40:26;29.45;;;15.02;;
25569;SDS011;17955;45.542;9.238;2022-10-18T10:43:01;28.92;;;16.10;;
25569;SDS011;17955;45.542;9.238;2022-10-18T10:45:32;27.27;;;14.18;;
25569;SDS011;17955;45.542;9.238;2022-10-18T10:48:10;24.65;;;13.27;;
25569;SDS011;17955;45.542;9.238;2022-10-18T10:50:48;21.63;;;12.85;;
25569;SDS011;17955;45.542;9.238;2022-10-18T10:53:23;24.00;;;13.80;;
25569;SDS011;17955;45.542;9.238;2022-10-18T10:56:04;32.45;;;13.32;;
25569;SDS011;17955;45.542;9.238;2022-10-18T10:58:33;20.02;;;12.43;;
25569;SDS011;17955;45.542;9.238;2022-10-18T11:01:17;20.83;;;12.45;;
25569;SDS011;17955;45.542;9.238;2022-10-18T11:03:49;26.27;;;14.18;;
25569;SDS011;17955;45.542;9.238;2022-10-18T11:09:40;21.27;;;10.60;;
25569;SDS011;17955;45.542;9.238;2022-10-18T11:12:17;22.63;;;11.45;;
25569;SDS011;17955;45.542;9.238;2022-10-18T11:14:53;24.08;;;14.15;;
25569;SDS011;17955;45.542;9.238;2022-10-18T11:17:28;21.63;;;12.52;;
25569;SDS011;17955;45.542;9.238;2022-10-18T11:20:06;20.02;;;13.02;;
25569;SDS011;17955;45.542;9.238;2022-10-18T11:22:46;29.75;;;15.02;;
25569;SDS011;17955;45.542;9.238;2022-10-18T11:25:25;25.13;;;13.25;;
25569;SDS011;17955;45.542;9.238;2022-10-18T11:28:08;24.27;;;14.20;;
25569;SDS011;17955;45.542;9.238;2022-10-18T11:30:45;26.13;;;15.00;;
25569;SDS011;17955;45.542;9.238;2022-10-18T11:33:21;25.83;;;15.02;;
25569;SDS011;17955;45.542;9.238;2022-10-18T11:38:32;27.77;;;16.02;;
25569;SDS011;17955;45.542;9.238;2022-10-18T11:44:08;36.20;;;18.25;;
25569;SDS011;17955;45.542;9.238;2022-10-18T11:46:44;32.20;;;16.38;;
25569;SDS011;17955;45.542;9.238;2022-10-18T11:52:12;25.92;;;16.83;;
25569;SDS011;17955;45.542;9.238;2022-10-18T11:54:53;35.45;;;17.27;;
25569;SDS011;17955;45.542;9.238;2022-10-18T11:57:31;28.77;;;17.67;;
25569;SDS011;17955;45.542;9.238;2022-10-18T12:00:12;38.83;;;20.52;;
25569;SDS011;17955;45.542;9.238;2022-10-18T12:05:42;35.45;;;17.58;;
25569;SDS011;17955;45.542;9.238;2022-10-18T12:08:12;33.88;;;16.98;;
25569;SDS011;17955;45.542;9.238;2022-10-18T12:10:44;27.30;;;17.80;;
25569;SDS011;17955;45.542;9.238;2022-10-18T12:13:15;33.50;;;17.58;;
25569;SDS011;17955;45.542;9.238;2022-10-18T12:15:48;31.42;;;16.90;;
25569;SDS011;17955;45.542;9.238;2022-10-18T12:18:17;27.38;;;15.75;;
25569;SDS011;17955;45.542;9.238;2022-10-18T12:20:48;28.42;;;17.25;;
25569;SDS011;17955;45.542;9.238;2022-10-18T12:23:19;30.88;;;17.30;;
25569;SDS011;17955;45.542;9.238;2022-10-18T12:25:52;29.35;;;17.05;;
25569;SDS011;17955;45.542;9.238;2022-10-18T12:28:24;32.90;;;17.73;;
25569;SDS011;17955;45.542;9.238;2022-10-18T12:31:03;24.98;;;15.57;;
25569;SDS011;17955;45.542;9.238;2022-10-18T12:33:35;36.72;;;18.85;;
25569;SDS011;17955;45.542;9.238;2022-10-18T12:36:06;30.75;;;17.27;;
25569;SDS011;17955;45.542;9.238;2022-10-18T12:38:45;28.65;;;17.33;;
25569;SDS011;17955;45.542;9.238;2022-10-18T12:41:17;29.77;;;17.00;;
25569;SDS011;17955;45.542;9.238;2022-10-18T12:43:49;28.33;;;17.15;;
25569;SDS011;17955;45.542;9.238;2022-10-18T12:46:19;29.23;;;18.50;;
25569;SDS011;17955;45.542;9.238;2022-10-18T12:48:48;29.05;;;18.60;;
25569;SDS011;17955;45.542;9.238;2022-10-18T12:51:30;32.58;;;19.17;;
25569;SDS011;17955;45.542;9.238;2022-10-18T12:54:07;35.67;;;20.65;;
25569;SDS011;17955;45.542;9.238;2022-10-18T12:56:39;38.42;;;20.55;;
25569;SDS011;17955;45.542;9.238;2022-10-18T13:05:03;32.33;;;18.05;;
25569;SDS011;17955;45.542;9.238;2022-10-18T13:17:00;36.38;;;20.38;;
25569;SDS011;17955;45.542;9.238;2022-10-18T13:19:38;35.60;;;20.80;;
25569;SDS011;17955;45.542;9.238;2022-10-18T13:22:21;35.13;;;19.90;;
25569;SDS011;17955;45.542;9.238;2022-10-18T13:25:00;32.65;;;18.33;;
25569;SDS011;17955;45.542;9.238;2022-10-18T13:27:37;29.10;;;17.63;;
25569;SDS011;17955;45.542;9.238;2022-10-18T13:33:13;35.85;;;20.45;;
25569;SDS011;17955;45.542;9.238;2022-10-18T13:35:54;31.15;;;19.58;;
25569;SDS011;17955;45.542;9.238;2022-10-18T13:38:36;31.35;;;18.67;;
25569;SDS011;17955;45.542;9.238;2022-10-18T13:41:12;31.42;;;18.90;;
25569;SDS011;17955;45.542;9.238;2022-10-18T13:43:52;31.00;;;17.40;;
25569;SDS011;17955;45.542;9.238;2022-10-18T13:52:55;39.47;;;22.13;;
25569;SDS011;17955;45.542;9.238;2022-10-18T13:55:47;46.47;;;22.08;;
25569;SDS011;17955;45.542;9.238;2022-10-18T13:58:21;33.92;;;20.58;;
25569;SDS011;17955;45.542;9.238;2022-10-18T14:00:59;32.75;;;18.70;;
25569;SDS011;17955;45.542;9.238;2022-10-18T14:06:39;35.20;;;21.30;;
25569;SDS011;17955;45.542;9.238;2022-10-18T14:09:11;38.03;;;20.58;;
25569;SDS011;17955;45.542;9.238;2022-10-18T14:11:43;39.20;;;20.92;;
25569;SDS011;17955;45.542;9.238;2022-10-18T14:14:15;35.70;;;20.20;;
25569;SDS011;17955;45.542;9.238;2022-10-18T14:16:49;35.25;;;19.85;;
25569;SDS011;17955;45.542;9.238;2022-10-18T14:21:55;38.35;;;19.95;;
25569;SDS011;17955;45.542;9.238;2022-10-18T14:24:31;43.50;;;21.20;;
25569;SDS011;17955;45.542;9.238;2022-10-18T14:27:11;30.50;;;19.75;;
25569;SDS011;17955;45.542;9.238;2022-10-18T14:29:41;31.30;;;20.17;;
25569;SDS011;17955;45.542;9.238;2022-10-18T14:32:17;35.97;;;21.35;;
25569;SDS011;17955;45.542;9.238;2022-10-18T14:34:49;34.17;;;20.95;;
25569;SDS011;17955;45.542;9.238;2022-10-18T14:37:19;37.08;;;20.50;;
25569;SDS011;17955;45.542;9.238;2022-10-18T14:39:53;34.97;;;19.20;;
25569;SDS011;17955;45.542;9.238;2022-10-18T14:42:21;30.63;;;18.73;;
25569;SDS011;17955;45.542;9.238;2022-10-18T14:44:50;33.72;;;19.10;;
25569;SDS011;17955;45.542;9.238;2022-10-18T14:47:19;35.47;;;20.98;;
25569;SDS011;17955;45.542;9.238;2022-10-18T14:49:47;33.40;;;21.17;;
25569;SDS011;17955;45.542;9.238;2022-10-18T14:52:15;39.75;;;23.73;;
25569;SDS011;17955;45.542;9.238;2022-10-18T14:54:45;42.80;;;23.88;;
25569;SDS011;17955;45.542;9.238;2022-10-18T14:57:18;39.83;;;23.27;;
25569;SDS011;17955;45.542;9.238;2022-10-18T14:59:49;42.13;;;23.58;;
25569;SDS011;17955;45.542;9.238;2022-10-18T15:02:22;40.67;;;22.73;;
25569;SDS011;17955;45.542;9.238;2022-10-18T15:04:56;43.85;;;23.00;;
25569;SDS011;17955;45.542;9.238;2022-10-18T15:07:24;40.40;;;24.50;;
25569;SDS011;17955;45.542;9.238;2022-10-18T15:09:54;48.85;;;26.00;;
25569;SDS011;17955;45.542;9.238;2022-10-18T15:12:24;45.58;;;24.35;;
25569;SDS011;17955;45.542;9.238;2022-10-18T15:14:53;38.03;;;23.67;;
25569;SDS011;17955;45.542;9.238;2022-10-18T15:17:22;38.20;;;23.70;;
25569;SDS011;17955;45.542;9.238;2022-10-18T15:19:52;48.95;;;25.08;;
25569;SDS011;17955;45.542;9.238;2022-10-18T15:22:21;38.33;;;22.92;;
25569;SDS011;17955;45.542;9.238;2022-10-18T15:25:02;46.15;;;24.10;;
25569;SDS011;17955;45.542;9.238;2022-10-18T15:27:36;45.33;;;24.83;;
25569;SDS011;17955;45.542;9.238;2022-10-18T15:30:06;41.63;;;24.15;;
25569;SDS011;17955;45.542;9.238;2022-10-18T15:32:35;45.90;;;23.45;;
25569;SDS011;17955;45.542;9.238;2022-10-18T15:35:06;42.13;;;25.17;;
25569;SDS011;17955;45.542;9.238;2022-10-18T15:37:38;40.83;;;23.83;;